sensor_id;sensor_type;location;lat;lon;timestamp;temperature;humidity
44990;DHT22;30723;51.206;3.326;2022-07-09T00:02:08;19.00;99.90
44990;DHT22;30723;51.206;3.326;2022-07-09T00:04:35;19.00;99.90
44990;DHT22;30723;51.206;3.326;2022-07-09T00:07:01;19.00;99.90
44990;DHT22;30723;51.206;3.326;2022-07-09T00:09:28;19.00;99.90
44990;DHT22;30723;51.206;3.326;2022-07-09T00:11:55;18.90;99.90
44990;DHT22;30723;51.206;3.326;2022-07-09T00:14:23;19.00;99.90
44990;DHT22;30723;51.206;3.326;2022-07-09T00:16:50;19.00;99.90
44990;DHT22;30723;51.206;3.326;2022-07-09T00:19:17;18.90;99.90
44990;DHT22;30723;51.206;3.326;2022-07-09T00:21:44;18.90;99.90
44990;DHT22;30723;51.206;3.326;2022-07-09T00:24:11;18.90;99.90
44990;DHT22;30723;51.206;3.326;2022-07-09T00:26:37;18.80;99.90
44990;DHT22;30723;51.206;3.326;2022-07-09T00:29:04;18.80;99.90
44990;DHT22;30723;51.206;3.326;2022-07-09T00:31:31;18.70;99.90
44990;DHT22;30723;51.206;3.326;2022-07-09T00:33:57;18.60;99.90
44990;DHT22;30723;51.206;3.326;2022-07-09T00:36:23;18.50;99.90
44990;DHT22;30723;51.206;3.326;2022-07-09T00:38:50;18.50;99.90
44990;DHT22;30723;51.206;3.326;2022-07-09T00:41:17;18.60;99.90
44990;DHT22;30723;51.206;3.326;2022-07-09T00:43:50;18.60;99.90
44990;DHT22;30723;51.206;3.326;2022-07-09T00:46:17;18.70;99.90
44990;DHT22;30723;51.206;3.326;2022-07-09T00:48:43;18.80;99.90
44990;DHT22;30723;51.206;3.326;2022-07-09T00:51:12;18.80;99.90
44990;DHT22;30723;51.206;3.326;2022-07-09T00:53:41;18.90;99.90
44990;DHT22;30723;51.206;3.326;2022-07-09T00:56:08;18.90;99.90
44990;DHT22;30723;51.206;3.326;2022-07-09T00:58:36;19.00;99.90
44990;DHT22;30723;51.206;3.326;2022-07-09T01:01:03;19.10;99.90
44990;DHT22;30723;51.206;3.326;2022-07-09T01:03:30;19.10;99.90
44990;DHT22;30723;51.206;3.326;2022-07-09T01:05:57;19.10;99.90
44990;DHT22;30723;51.206;3.326;2022-07-09T01:08:24;19.00;99.90
44990;DHT22;30723;51.206;3.326;2022-07-09T01:10:52;18.90;99.90
44990;DHT22;30723;51.206;3.326;2022-07-09T01:13:19;18.90;99.90
44990;DHT22;30723;51.206;3.326;2022-07-09T01:15:45;18.90;99.90
44990;DHT22;30723;51.206;3.326;2022-07-09T01:18:13;18.90;99.90
44990;DHT22;30723;51.206;3.326;2022-07-09T01:20:39;18.90;99.90
44990;DHT22;30723;51.206;3.326;2022-07-09T01:23:06;18.90;99.90
44990;DHT22;30723;51.206;3.326;2022-07-09T01:25:39;18.90;99.90
44990;DHT22;30723;51.206;3.326;2022-07-09T01:28:08;18.80;99.90
44990;DHT22;30723;51.206;3.326;2022-07-09T01:30:37;18.80;99.90
44990;DHT22;30723;51.206;3.326;2022-07-09T01:33:04;18.80;99.90
44990;DHT22;30723;51.206;3.326;2022-07-09T01:35:31;18.80;99.90
44990;DHT22;30723;51.206;3.326;2022-07-09T01:37:58;18.70;99.90
44990;DHT22;30723;51.206;3.326;2022-07-09T01:40:25;18.70;99.90
44990;DHT22;30723;51.206;3.326;2022-07-09T01:42:52;18.70;99.90
44990;DHT22;30723;51.206;3.326;2022-07-09T01:45:19;18.60;99.90
44990;DHT22;30723;51.206;3.326;2022-07-09T01:47:45;18.50;99.90
44990;DHT22;30723;51.206;3.326;2022-07-09T01:50:12;18.40;99.90
44990;DHT22;30723;51.206;3.326;2022-07-09T01:52:39;18.40;99.90
44990;DHT22;30723;51.206;3.326;2022-07-09T01:55:07;18.30;99.90
44990;DHT22;30723;51.206;3.326;2022-07-09T01:57:34;18.20;99.90
44990;DHT22;30723;51.206;3.326;2022-07-09T02:00:01;18.10;99.90
44990;DHT22;30723;51.206;3.326;2022-07-09T02:02:28;18.00;99.90
44990;DHT22;30723;51.206;3.326;2022-07-09T02:04:55;17.90;99.90
44990;DHT22;30723;51.206;3.326;2022-07-09T02:07:22;17.90;99.90
44990;DHT22;30723;51.206;3.326;2022-07-09T02:09:48;17.90;99.90
44990;DHT22;30723;51.206;3.326;2022-07-09T02:12:17;17.90;99.90
44990;DHT22;30723;51.206;3.326;2022-07-09T02:14:44;18.00;99.90
44990;DHT22;30723;51.206;3.326;2022-07-09T02:17:11;18.10;99.90
44990;DHT22;30723;51.206;3.326;2022-07-09T02:19:37;18.20;99.90
44990;DHT22;30723;51.206;3.326;2022-07-09T02:22:04;18.10;99.90
44990;DHT22;30723;51.206;3.326;2022-07-09T02:24:31;18.10;99.90
44990;DHT22;30723;51.206;3.326;2022-07-09T02:26:58;18.00;99.90
44990;DHT22;30723;51.206;3.326;2022-07-09T02:29:24;18.00;99.90
44990;DHT22;30723;51.206;3.326;2022-07-09T02:31:51;17.80;99.90
44990;DHT22;30723;51.206;3.326;2022-07-09T02:34:17;17.80;99.90
44990;DHT22;30723;51.206;3.326;2022-07-09T02:36:44;17.80;99.90
44990;DHT22;30723;51.206;3.326;2022-07-09T02:39:11;17.70;99.90
44990;DHT22;30723;51.206;3.326;2022-07-09T02:41:37;17.50;99.90
44990;DHT22;30723;51.206;3.326;2022-07-09T02:44:03;17.50;99.90
44990;DHT22;30723;51.206;3.326;2022-07-09T02:46:29;17.60;99.90
44990;DHT22;30723;51.206;3.326;2022-07-09T02:48:55;17.60;99.90
44990;DHT22;30723;51.206;3.326;2022-07-09T02:51:22;17.50;99.90
44990;DHT22;30723;51.206;3.326;2022-07-09T02:53:49;17.50;99.90
44990;DHT22;30723;51.206;3.326;2022-07-09T02:56:15;17.50;99.90
44990;DHT22;30723;51.206;3.326;2022-07-09T02:58:42;17.50;99.90
44990;DHT22;30723;51.206;3.326;2022-07-09T03:01:08;17.50;99.90
44990;DHT22;30723;51.206;3.326;2022-07-09T03:03:35;17.50;99.90
44990;DHT22;30723;51.206;3.326;2022-07-09T03:06:03;17.50;99.90
44990;DHT22;30723;51.206;3.326;2022-07-09T03:08:30;17.60;99.90
44990;DHT22;30723;51.206;3.326;2022-07-09T03:10:57;17.60;99.90
44990;DHT22;30723;51.206;3.326;2022-07-09T03:13:23;17.60;99.90
44990;DHT22;30723;51.206;3.326;2022-07-09T03:15:50;17.60;99.90
44990;DHT22;30723;51.206;3.326;2022-07-09T03:18:17;17.60;99.90
44990;DHT22;30723;51.206;3.326;2022-07-09T03:20:44;17.50;99.90
44990;DHT22;30723;51.206;3.326;2022-07-09T03:23:10;17.50;99.90
44990;DHT22;30723;51.206;3.326;2022-07-09T03:25:39;17.40;99.90
44990;DHT22;30723;51.206;3.326;2022-07-09T03:28:05;17.40;99.90
44990;DHT22;30723;51.206;3.326;2022-07-09T03:30:31;17.40;99.90
44990;DHT22;30723;51.206;3.326;2022-07-09T03:32:58;17.30;99.90
44990;DHT22;30723;51.206;3.326;2022-07-09T03:35:24;17.30;99.90
44990;DHT22;30723;51.206;3.326;2022-07-09T03:37:51;17.30;99.90
44990;DHT22;30723;51.206;3.326;2022-07-09T03:40:18;17.30;99.90
44990;DHT22;30723;51.206;3.326;2022-07-09T03:42:44;17.20;99.90
44990;DHT22;30723;51.206;3.326;2022-07-09T03:45:12;17.20;99.90
44990;DHT22;30723;51.206;3.326;2022-07-09T03:47:38;17.20;99.90
44990;DHT22;30723;51.206;3.326;2022-07-09T03:50:07;17.30;99.90
44990;DHT22;30723;51.206;3.326;2022-07-09T03:52:34;17.30;99.90
44990;DHT22;30723;51.206;3.326;2022-07-09T03:55:01;17.30;99.90
44990;DHT22;30723;51.206;3.326;2022-07-09T03:57:27;17.30;99.90
44990;DHT22;30723;51.206;3.326;2022-07-09T03:59:54;17.30;99.90
44990;DHT22;30723;51.206;3.326;2022-07-09T04:02:20;17.20;99.90
44990;DHT22;30723;51.206;3.326;2022-07-09T04:04:46;17.20;99.90
44990;DHT22;30723;51.206;3.326;2022-07-09T04:07:12;17.10;99.90
44990;DHT22;30723;51.206;3.326;2022-07-09T04:09:38;17.10;99.90
44990;DHT22;30723;51.206;3.326;2022-07-09T04:12:06;17.10;99.90
44990;DHT22;30723;51.206;3.326;2022-07-09T04:14:33;17.10;99.90
44990;DHT22;30723;51.206;3.326;2022-07-09T04:16:59;17.10;99.90
44990;DHT22;30723;51.206;3.326;2022-07-09T04:19:26;17.10;99.90
44990;DHT22;30723;51.206;3.326;2022-07-09T04:21:52;17.00;99.90
44990;DHT22;30723;51.206;3.326;2022-07-09T04:24:19;17.00;99.90
44990;DHT22;30723;51.206;3.326;2022-07-09T04:26:45;17.00;99.90
44990;DHT22;30723;51.206;3.326;2022-07-09T04:29:11;17.00;99.90
44990;DHT22;30723;51.206;3.326;2022-07-09T04:31:36;17.00;99.90
44990;DHT22;30723;51.206;3.326;2022-07-09T04:34:03;17.10;99.90
44990;DHT22;30723;51.206;3.326;2022-07-09T04:36:30;17.10;99.90
44990;DHT22;30723;51.206;3.326;2022-07-09T04:38:57;17.00;99.90
44990;DHT22;30723;51.206;3.326;2022-07-09T04:41:24;17.00;99.90
44990;DHT22;30723;51.206;3.326;2022-07-09T04:43:50;17.10;99.90
44990;DHT22;30723;51.206;3.326;2022-07-09T04:46:15;17.10;99.90
44990;DHT22;30723;51.206;3.326;2022-07-09T04:48:43;17.30;99.90
44990;DHT22;30723;51.206;3.326;2022-07-09T04:51:09;17.30;99.90
44990;DHT22;30723;51.206;3.326;2022-07-09T04:53:36;17.40;99.90
44990;DHT22;30723;51.206;3.326;2022-07-09T04:56:03;17.50;99.90
44990;DHT22;30723;51.206;3.326;2022-07-09T04:58:30;17.50;99.90
44990;DHT22;30723;51.206;3.326;2022-07-09T05:00:56;17.50;99.90
44990;DHT22;30723;51.206;3.326;2022-07-09T05:03:23;17.60;99.90
44990;DHT22;30723;51.206;3.326;2022-07-09T05:05:51;17.70;99.90
44990;DHT22;30723;51.206;3.326;2022-07-09T05:08:19;17.70;99.90
44990;DHT22;30723;51.206;3.326;2022-07-09T05:10:45;17.80;99.90
44990;DHT22;30723;51.206;3.326;2022-07-09T05:13:12;17.90;99.90
44990;DHT22;30723;51.206;3.326;2022-07-09T05:15:39;18.00;99.90
44990;DHT22;30723;51.206;3.326;2022-07-09T05:18:13;18.10;99.90
44990;DHT22;30723;51.206;3.326;2022-07-09T05:20:40;18.30;99.90
44990;DHT22;30723;51.206;3.326;2022-07-09T05:23:08;18.30;99.90
44990;DHT22;30723;51.206;3.326;2022-07-09T05:25:35;18.60;99.90
44990;DHT22;30723;51.206;3.326;2022-07-09T05:28:02;18.70;99.90
44990;DHT22;30723;51.206;3.326;2022-07-09T05:30:29;18.90;99.90
44990;DHT22;30723;51.206;3.326;2022-07-09T05:32:55;18.90;99.90
44990;DHT22;30723;51.206;3.326;2022-07-09T05:35:21;19.10;99.90
44990;DHT22;30723;51.206;3.326;2022-07-09T05:37:48;19.30;99.90
44990;DHT22;30723;51.206;3.326;2022-07-09T05:40:15;19.50;99.90
44990;DHT22;30723;51.206;3.326;2022-07-09T05:42:41;19.70;99.90
44990;DHT22;30723;51.206;3.326;2022-07-09T05:45:09;19.70;99.90
44990;DHT22;30723;51.206;3.326;2022-07-09T05:47:36;19.80;99.90
44990;DHT22;30723;51.206;3.326;2022-07-09T05:50:03;19.70;99.90
44990;DHT22;30723;51.206;3.326;2022-07-09T05:52:30;19.80;99.90
44990;DHT22;30723;51.206;3.326;2022-07-09T05:54:56;19.90;99.90
44990;DHT22;30723;51.206;3.326;2022-07-09T05:57:23;19.90;99.90
44990;DHT22;30723;51.206;3.326;2022-07-09T05:59:49;20.00;99.90
44990;DHT22;30723;51.206;3.326;2022-07-09T06:02:25;19.90;99.90
44990;DHT22;30723;51.206;3.326;2022-07-09T06:04:51;19.90;99.90
44990;DHT22;30723;51.206;3.326;2022-07-09T06:07:17;19.80;99.90
44990;DHT22;30723;51.206;3.326;2022-07-09T06:09:43;19.80;99.90
44990;DHT22;30723;51.206;3.326;2022-07-09T06:12:08;19.70;99.90
44990;DHT22;30723;51.206;3.326;2022-07-09T06:14:35;19.80;99.90
44990;DHT22;30723;51.206;3.326;2022-07-09T06:17:02;19.90;99.90
44990;DHT22;30723;51.206;3.326;2022-07-09T06:19:35;19.80;99.90
44990;DHT22;30723;51.206;3.326;2022-07-09T06:22:03;19.80;99.90
44990;DHT22;30723;51.206;3.326;2022-07-09T06:24:30;20.00;99.90
44990;DHT22;30723;51.206;3.326;2022-07-09T06:26:57;20.20;99.90
44990;DHT22;30723;51.206;3.326;2022-07-09T06:29:24;20.80;99.90
44990;DHT22;30723;51.206;3.326;2022-07-09T06:31:50;21.00;99.90
44990;DHT22;30723;51.206;3.326;2022-07-09T06:34:17;21.20;99.90
44990;DHT22;30723;51.206;3.326;2022-07-09T06:36:43;21.00;99.90
44990;DHT22;30723;51.206;3.326;2022-07-09T06:39:11;20.80;99.90
44990;DHT22;30723;51.206;3.326;2022-07-09T06:42:04;20.80;99.90
44990;DHT22;30723;51.206;3.326;2022-07-09T06:44:32;21.10;99.90
44990;DHT22;30723;51.206;3.326;2022-07-09T06:46:57;21.30;99.90
44990;DHT22;30723;51.206;3.326;2022-07-09T06:49:24;21.60;99.90
44990;DHT22;30723;51.206;3.326;2022-07-09T06:51:51;22.00;99.90
44990;DHT22;30723;51.206;3.326;2022-07-09T06:54:17;22.20;99.90
44990;DHT22;30723;51.206;3.326;2022-07-09T06:56:44;22.10;99.90
44990;DHT22;30723;51.206;3.326;2022-07-09T06:59:10;21.90;99.90
44990;DHT22;30723;51.206;3.326;2022-07-09T07:01:36;21.80;99.90
44990;DHT22;30723;51.206;3.326;2022-07-09T07:04:04;21.80;99.90
44990;DHT22;30723;51.206;3.326;2022-07-09T07:06:31;21.80;99.90
44990;DHT22;30723;51.206;3.326;2022-07-09T07:08:56;21.60;99.90
44990;DHT22;30723;51.206;3.326;2022-07-09T07:11:23;21.70;99.90
44990;DHT22;30723;51.206;3.326;2022-07-09T07:13:50;21.60;99.90
44990;DHT22;30723;51.206;3.326;2022-07-09T07:16:17;21.40;99.90
44990;DHT22;30723;51.206;3.326;2022-07-09T07:18:43;21.70;99.90
44990;DHT22;30723;51.206;3.326;2022-07-09T07:21:10;22.10;99.90
44990;DHT22;30723;51.206;3.326;2022-07-09T07:23:37;22.30;99.90
44990;DHT22;30723;51.206;3.326;2022-07-09T07:26:04;22.50;99.90
44990;DHT22;30723;51.206;3.326;2022-07-09T07:28:31;23.00;99.90
44990;DHT22;30723;51.206;3.326;2022-07-09T07:30:57;23.30;99.90
44990;DHT22;30723;51.206;3.326;2022-07-09T07:33:24;23.40;99.90
44990;DHT22;30723;51.206;3.326;2022-07-09T07:35:51;23.80;99.90
44990;DHT22;30723;51.206;3.326;2022-07-09T07:38:18;24.60;99.90
44990;DHT22;30723;51.206;3.326;2022-07-09T07:40:45;25.10;99.90
44990;DHT22;30723;51.206;3.326;2022-07-09T07:43:11;25.40;99.90
44990;DHT22;30723;51.206;3.326;2022-07-09T07:45:38;25.40;99.90
44990;DHT22;30723;51.206;3.326;2022-07-09T07:48:05;26.00;99.90
44990;DHT22;30723;51.206;3.326;2022-07-09T07:50:32;26.40;99.90
44990;DHT22;30723;51.206;3.326;2022-07-09T07:52:59;26.40;99.90
44990;DHT22;30723;51.206;3.326;2022-07-09T07:55:26;26.60;99.90
44990;DHT22;30723;51.206;3.326;2022-07-09T07:57:53;26.70;99.90
44990;DHT22;30723;51.206;3.326;2022-07-09T08:00:20;26.80;99.90
44990;DHT22;30723;51.206;3.326;2022-07-09T08:02:45;27.30;99.90
44990;DHT22;30723;51.206;3.326;2022-07-09T08:05:11;28.00;99.90
44990;DHT22;30723;51.206;3.326;2022-07-09T08:07:39;28.10;99.90
44990;DHT22;30723;51.206;3.326;2022-07-09T08:10:07;28.80;99.80
44990;DHT22;30723;51.206;3.326;2022-07-09T08:12:34;28.70;99.60
44990;DHT22;30723;51.206;3.326;2022-07-09T08:15:02;28.60;99.30
44990;DHT22;30723;51.206;3.326;2022-07-09T08:17:28;27.80;99.40
44990;DHT22;30723;51.206;3.326;2022-07-09T08:19:55;27.70;99.90
44990;DHT22;30723;51.206;3.326;2022-07-09T08:22:22;27.50;99.80
44990;DHT22;30723;51.206;3.326;2022-07-09T08:24:48;27.30;99.70
44990;DHT22;30723;51.206;3.326;2022-07-09T08:27:15;26.80;99.90
44990;DHT22;30723;51.206;3.326;2022-07-09T08:29:42;26.30;99.90
44990;DHT22;30723;51.206;3.326;2022-07-09T08:32:09;25.50;99.90
44990;DHT22;30723;51.206;3.326;2022-07-09T08:34:36;25.30;99.90
44990;DHT22;30723;51.206;3.326;2022-07-09T08:37:04;25.10;99.90
44990;DHT22;30723;51.206;3.326;2022-07-09T08:39:30;24.80;99.90
44990;DHT22;30723;51.206;3.326;2022-07-09T08:41:56;24.10;99.90
44990;DHT22;30723;51.206;3.326;2022-07-09T08:44:29;23.90;99.90
44990;DHT22;30723;51.206;3.326;2022-07-09T08:46:56;24.40;99.90
44990;DHT22;30723;51.206;3.326;2022-07-09T08:49:27;25.10;99.90
44990;DHT22;30723;51.206;3.326;2022-07-09T09:04:34;28.10;99.40
44990;DHT22;30723;51.206;3.326;2022-07-09T09:07:12;29.30;97.60
44990;DHT22;30723;51.206;3.326;2022-07-09T09:09:39;30.10;95.00
44990;DHT22;30723;51.206;3.326;2022-07-09T09:12:07;29.10;95.20
44990;DHT22;30723;51.206;3.326;2022-07-09T09:14:34;29.10;94.50
44990;DHT22;30723;51.206;3.326;2022-07-09T09:17:26;29.90;93.30
44990;DHT22;30723;51.206;3.326;2022-07-09T09:19:53;31.10;93.50
44990;DHT22;30723;51.206;3.326;2022-07-09T09:22:19;30.40;90.90
44990;DHT22;30723;51.206;3.326;2022-07-09T09:24:50;29.80;92.10
44990;DHT22;30723;51.206;3.326;2022-07-09T09:27:16;30.80;91.30
44990;DHT22;30723;51.206;3.326;2022-07-09T09:29:50;30.00;90.70
44990;DHT22;30723;51.206;3.326;2022-07-09T09:32:20;30.10;91.10
44990;DHT22;30723;51.206;3.326;2022-07-09T09:34:52;30.20;91.10
44990;DHT22;30723;51.206;3.326;2022-07-09T09:37:30;29.70;90.80
44990;DHT22;30723;51.206;3.326;2022-07-09T09:39:57;31.00;90.10
44990;DHT22;30723;51.206;3.326;2022-07-09T09:42:43;31.40;89.30
44990;DHT22;30723;51.206;3.326;2022-07-09T09:45:14;30.90;87.90
44990;DHT22;30723;51.206;3.326;2022-07-09T09:47:47;29.90;88.90
44990;DHT22;30723;51.206;3.326;2022-07-09T09:50:19;28.10;91.20
44990;DHT22;30723;51.206;3.326;2022-07-09T09:52:47;27.90;93.10
44990;DHT22;30723;51.206;3.326;2022-07-09T09:55:16;28.40;93.00
44990;DHT22;30723;51.206;3.326;2022-07-09T09:57:43;28.10;92.40
44990;DHT22;30723;51.206;3.326;2022-07-09T10:00:12;28.20;93.20
44990;DHT22;30723;51.206;3.326;2022-07-09T10:02:42;29.50;91.90
44990;DHT22;30723;51.206;3.326;2022-07-09T10:05:08;30.50;90.20
44990;DHT22;30723;51.206;3.326;2022-07-09T10:07:34;32.10;86.00
44990;DHT22;30723;51.206;3.326;2022-07-09T10:10:01;30.70;84.30
44990;DHT22;30723;51.206;3.326;2022-07-09T10:12:34;30.20;87.80
44990;DHT22;30723;51.206;3.326;2022-07-09T10:15:07;29.90;87.50
44990;DHT22;30723;51.206;3.326;2022-07-09T10:17:40;29.50;89.60
44990;DHT22;30723;51.206;3.326;2022-07-09T10:20:08;29.10;89.70
44990;DHT22;30723;51.206;3.326;2022-07-09T10:22:41;27.90;91.70
44990;DHT22;30723;51.206;3.326;2022-07-09T10:25:10;27.60;92.20
44990;DHT22;30723;51.206;3.326;2022-07-09T10:30:22;28.00;92.30
44990;DHT22;30723;51.206;3.326;2022-07-09T10:33:08;28.90;92.40
44990;DHT22;30723;51.206;3.326;2022-07-09T10:35:44;28.60;91.60
44990;DHT22;30723;51.206;3.326;2022-07-09T10:38:11;28.00;91.40
44990;DHT22;30723;51.206;3.326;2022-07-09T10:40:55;27.10;92.80
44990;DHT22;30723;51.206;3.326;2022-07-09T10:43:42;26.30;93.50
44990;DHT22;30723;51.206;3.326;2022-07-09T10:46:13;25.90;94.20
44990;DHT22;30723;51.206;3.326;2022-07-09T10:48:41;26.10;94.20
44990;DHT22;30723;51.206;3.326;2022-07-09T10:51:07;26.00;93.50
44990;DHT22;30723;51.206;3.326;2022-07-09T10:53:34;25.50;94.80
44990;DHT22;30723;51.206;3.326;2022-07-09T10:56:00;25.70;95.10
44990;DHT22;30723;51.206;3.326;2022-07-09T10:58:27;25.40;95.40
44990;DHT22;30723;51.206;3.326;2022-07-09T11:00:59;25.20;96.70
44990;DHT22;30723;51.206;3.326;2022-07-09T11:03:30;25.60;96.60
44990;DHT22;30723;51.206;3.326;2022-07-09T11:05:58;26.20;95.30
44990;DHT22;30723;51.206;3.326;2022-07-09T11:08:25;26.20;94.70
44990;DHT22;30723;51.206;3.326;2022-07-09T11:10:51;26.50;94.50
44990;DHT22;30723;51.206;3.326;2022-07-09T11:13:22;27.30;93.90
44990;DHT22;30723;51.206;3.326;2022-07-09T11:15:49;27.70;93.30
44990;DHT22;30723;51.206;3.326;2022-07-09T11:18:15;27.90;92.50
44990;DHT22;30723;51.206;3.326;2022-07-09T11:20:46;27.00;92.50
44990;DHT22;30723;51.206;3.326;2022-07-09T11:23:14;26.70;92.00
44990;DHT22;30723;51.206;3.326;2022-07-09T11:25:42;26.60;91.70
44990;DHT22;30723;51.206;3.326;2022-07-09T11:28:18;26.80;91.60
44990;DHT22;30723;51.206;3.326;2022-07-09T11:30:45;27.90;90.50
44990;DHT22;30723;51.206;3.326;2022-07-09T11:33:14;28.90;88.00
44990;DHT22;30723;51.206;3.326;2022-07-09T11:35:43;30.00;86.60
44990;DHT22;30723;51.206;3.326;2022-07-09T11:38:11;29.40;87.70
44990;DHT22;30723;51.206;3.326;2022-07-09T11:40:38;28.80;87.30
44990;DHT22;30723;51.206;3.326;2022-07-09T11:43:13;27.90;90.20
44990;DHT22;30723;51.206;3.326;2022-07-09T11:45:50;27.20;89.00
44990;DHT22;30723;51.206;3.326;2022-07-09T11:48:17;26.20;90.90
44990;DHT22;30723;51.206;3.326;2022-07-09T11:50:45;26.80;91.70
44990;DHT22;30723;51.206;3.326;2022-07-09T11:53:21;26.60;90.10
44990;DHT22;30723;51.206;3.326;2022-07-09T11:56:02;25.50;91.90
44990;DHT22;30723;51.206;3.326;2022-07-09T11:58:30;25.70;91.20
44990;DHT22;30723;51.206;3.326;2022-07-09T12:00:56;25.80;90.70
44990;DHT22;30723;51.206;3.326;2022-07-09T12:03:25;25.80;90.80
44990;DHT22;30723;51.206;3.326;2022-07-09T12:05:53;25.50;91.50
44990;DHT22;30723;51.206;3.326;2022-07-09T12:08:31;25.50;91.90
44990;DHT22;30723;51.206;3.326;2022-07-09T12:10:58;25.70;91.90
44990;DHT22;30723;51.206;3.326;2022-07-09T12:13:24;26.30;91.30
44990;DHT22;30723;51.206;3.326;2022-07-09T12:15:52;25.80;91.90
44990;DHT22;30723;51.206;3.326;2022-07-09T12:18:19;25.00;92.00
44990;DHT22;30723;51.206;3.326;2022-07-09T12:20:45;24.60;93.30
44990;DHT22;30723;51.206;3.326;2022-07-09T12:23:11;24.70;93.10
44990;DHT22;30723;51.206;3.326;2022-07-09T12:25:38;24.00;93.30
44990;DHT22;30723;51.206;3.326;2022-07-09T12:28:05;23.80;94.10
44990;DHT22;30723;51.206;3.326;2022-07-09T12:30:31;24.80;93.90
44990;DHT22;30723;51.206;3.326;2022-07-09T12:32:58;26.30;92.00
44990;DHT22;30723;51.206;3.326;2022-07-09T12:35:26;26.60;91.80
44990;DHT22;30723;51.206;3.326;2022-07-09T12:37:53;26.90;91.80
44990;DHT22;30723;51.206;3.326;2022-07-09T12:40:23;27.70;91.30
44990;DHT22;30723;51.206;3.326;2022-07-09T12:42:48;28.70;89.00
44990;DHT22;30723;51.206;3.326;2022-07-09T12:45:15;28.30;89.30
44990;DHT22;30723;51.206;3.326;2022-07-09T12:47:42;27.60;89.80
44990;DHT22;30723;51.206;3.326;2022-07-09T12:50:09;27.50;90.10
44990;DHT22;30723;51.206;3.326;2022-07-09T12:52:38;27.50;88.20
44990;DHT22;30723;51.206;3.326;2022-07-09T12:55:06;27.60;89.50
44990;DHT22;30723;51.206;3.326;2022-07-09T12:57:33;26.80;90.50
44990;DHT22;30723;51.206;3.326;2022-07-09T13:00:00;26.70;91.00
44990;DHT22;30723;51.206;3.326;2022-07-09T13:02:26;26.90;90.20
44990;DHT22;30723;51.206;3.326;2022-07-09T13:04:53;27.50;90.50
44990;DHT22;30723;51.206;3.326;2022-07-09T13:07:20;28.30;88.80
44990;DHT22;30723;51.206;3.326;2022-07-09T13:09:47;28.50;89.70
44990;DHT22;30723;51.206;3.326;2022-07-09T13:12:13;28.70;86.00
44990;DHT22;30723;51.206;3.326;2022-07-09T13:14:40;28.90;84.80
44990;DHT22;30723;51.206;3.326;2022-07-09T13:17:07;30.30;85.30
44990;DHT22;30723;51.206;3.326;2022-07-09T13:19:33;30.30;83.10
44990;DHT22;30723;51.206;3.326;2022-07-09T13:22:00;31.10;80.90
44990;DHT22;30723;51.206;3.326;2022-07-09T13:24:26;31.10;78.00
44990;DHT22;30723;51.206;3.326;2022-07-09T13:26:53;30.40;79.40
44990;DHT22;30723;51.206;3.326;2022-07-09T13:29:20;30.50;80.40
44990;DHT22;30723;51.206;3.326;2022-07-09T13:31:47;30.60;79.30
44990;DHT22;30723;51.206;3.326;2022-07-09T13:34:13;29.30;82.90
44990;DHT22;30723;51.206;3.326;2022-07-09T16:45:12;22.10;99.90
44990;DHT22;30723;51.206;3.326;2022-07-09T16:47:39;21.60;99.90
44990;DHT22;30723;51.206;3.326;2022-07-09T16:50:06;21.60;99.90
44990;DHT22;30723;51.206;3.326;2022-07-09T16:52:34;21.50;99.90
44990;DHT22;30723;51.206;3.326;2022-07-09T16:55:01;21.70;99.90
44990;DHT22;30723;51.206;3.326;2022-07-09T16:57:27;22.00;99.90
44990;DHT22;30723;51.206;3.326;2022-07-09T16:59:54;22.00;99.90
44990;DHT22;30723;51.206;3.326;2022-07-09T17:02:20;21.80;99.90
44990;DHT22;30723;51.206;3.326;2022-07-09T17:04:46;21.60;99.90
44990;DHT22;30723;51.206;3.326;2022-07-09T17:07:13;21.50;99.90
44990;DHT22;30723;51.206;3.326;2022-07-09T17:09:39;21.50;99.90
44990;DHT22;30723;51.206;3.326;2022-07-09T17:12:07;21.60;99.90
44990;DHT22;30723;51.206;3.326;2022-07-09T17:14:33;21.60;99.90
44990;DHT22;30723;51.206;3.326;2022-07-09T17:16:59;21.90;99.90
44990;DHT22;30723;51.206;3.326;2022-07-09T17:19:26;21.70;99.90
44990;DHT22;30723;51.206;3.326;2022-07-09T17:21:53;21.60;99.90
44990;DHT22;30723;51.206;3.326;2022-07-09T17:24:19;21.80;99.90
44990;DHT22;30723;51.206;3.326;2022-07-09T17:26:46;21.80;99.90
44990;DHT22;30723;51.206;3.326;2022-07-09T17:29:12;21.70;99.90
44990;DHT22;30723;51.206;3.326;2022-07-09T17:31:39;21.60;99.90
44990;DHT22;30723;51.206;3.326;2022-07-09T17:34:06;21.70;99.90
44990;DHT22;30723;51.206;3.326;2022-07-09T17:36:35;21.40;99.90
44990;DHT22;30723;51.206;3.326;2022-07-09T17:39:00;21.50;99.90
44990;DHT22;30723;51.206;3.326;2022-07-09T17:41:27;21.20;99.90
44990;DHT22;30723;51.206;3.326;2022-07-09T17:43:53;21.30;99.90
44990;DHT22;30723;51.206;3.326;2022-07-09T17:46:19;21.40;99.90
44990;DHT22;30723;51.206;3.326;2022-07-09T17:48:45;21.40;99.90
44990;DHT22;30723;51.206;3.326;2022-07-09T17:51:12;21.30;99.90
44990;DHT22;30723;51.206;3.326;2022-07-09T17:53:39;21.20;99.90
44990;DHT22;30723;51.206;3.326;2022-07-09T17:56:07;21.00;99.90
44990;DHT22;30723;51.206;3.326;2022-07-09T17:58:34;20.80;99.90
44990;DHT22;30723;51.206;3.326;2022-07-09T18:01:01;20.80;99.90
44990;DHT22;30723;51.206;3.326;2022-07-09T18:03:27;20.70;99.90
44990;DHT22;30723;51.206;3.326;2022-07-09T18:05:54;20.70;99.90
44990;DHT22;30723;51.206;3.326;2022-07-09T18:08:20;20.50;99.90
44990;DHT22;30723;51.206;3.326;2022-07-09T18:10:47;20.70;99.90
44990;DHT22;30723;51.206;3.326;2022-07-09T18:13:13;20.60;99.90
44990;DHT22;30723;51.206;3.326;2022-07-09T18:15:39;20.50;99.90
44990;DHT22;30723;51.206;3.326;2022-07-09T18:18:06;20.70;99.90
44990;DHT22;30723;51.206;3.326;2022-07-09T18:20:32;20.60;99.90
44990;DHT22;30723;51.206;3.326;2022-07-09T18:22:58;20.40;99.90
44990;DHT22;30723;51.206;3.326;2022-07-09T18:25:25;20.30;99.90
44990;DHT22;30723;51.206;3.326;2022-07-09T18:27:52;20.20;99.90
44990;DHT22;30723;51.206;3.326;2022-07-09T18:30:19;20.40;99.90
44990;DHT22;30723;51.206;3.326;2022-07-09T18:32:45;20.40;99.90
44990;DHT22;30723;51.206;3.326;2022-07-09T18:35:12;20.50;99.90
44990;DHT22;30723;51.206;3.326;2022-07-09T18:37:39;20.40;99.90
44990;DHT22;30723;51.206;3.326;2022-07-09T18:40:07;20.30;99.90
44990;DHT22;30723;51.206;3.326;2022-07-09T18:42:33;19.80;99.90
44990;DHT22;30723;51.206;3.326;2022-07-09T18:45:00;19.80;99.90
44990;DHT22;30723;51.206;3.326;2022-07-09T18:47:26;19.80;99.90
44990;DHT22;30723;51.206;3.326;2022-07-09T18:49:54;19.90;99.90
44990;DHT22;30723;51.206;3.326;2022-07-09T18:52:23;20.00;99.90
44990;DHT22;30723;51.206;3.326;2022-07-09T18:54:49;20.00;99.90
44990;DHT22;30723;51.206;3.326;2022-07-09T18:57:15;20.10;99.90